Nearby METAR Reports

 

EGLC - London City Airp, United Kingdom
Distance from station: WNW 7km
Updated: 16/08/2018 17:50
Clear
Clear
 Wind from SSW
Wind: SSW 9 mph , 15 km/h
Temperature: 19°C
Dew Point: 14°C
Humidity: 73%
Barometer: 1014 hPa
Clouds: Clear
Visibility: 6 miles , 10 km
2018/08/16 17:50 EGLC 161750Z AUTO 21008KT 170V260 9999 NCD 19/14 Q1014
EGKB - Biggin Hill, United Kingdom
Distance from station: SSW 20km
Updated: 16/08/2018 17:20
Clear
Clear
 Wind from SSW
Wind: SSW 10 mph , 17 km/h
Temperature: 16°C
Dew Point: 13°C
Humidity: 83%
Barometer: 1015 hPa
Summary: Clear
Visibility: greater than 7 miles , 10 km
2018/08/16 17:20 EGKB 161720Z 20009KT CAVOK 16/13 Q1015
 
EGMC - Southend-On-Sea, United Kingdom
Distance from station: ENE 39km
Updated: 16/08/2018 17:50
Clear
Clear
 Wind from SW
Wind: SW 7 mph , 11 km/h
Temperature: 16°C
Dew Point: 13°C
Humidity: 83%
Barometer: 1014 hPa
Summary: Clear
Visibility: greater than 7 miles , 10 km
2018/08/16 17:50 EGMC 161750Z 22006KT CAVOK 16/13 Q1014
EGWU - Northolt Raf, United Kingdom
Distance from station: WNW 40km
Updated: 16/08/2018 16:50
Clear
Clear
 Wind from W
Wind: W 12 mph , 19 km/h
Temperature: 20°C
Dew Point: 9°C
Humidity: 49%
Barometer: 1014 hPa
Summary: Clear
Visibility: greater than 7 miles , 10 km
2018/08/16 16:50 EGWU 161650Z 26010KT CAVOK 20/09 Q1014 NOSIG
 
EGLL - London/Heathrow, United Kingdom
Distance from station: W 41km
Updated: 16/08/2018 17:20
Clear
Clear
 Wind from W
Wind: W 14 mph , 22 km/h
Temperature: 21°C
Dew Point: 9°C
Humidity: 46%
Barometer: 1014 hPa
Clouds: Clear
Visibility: 6 miles , 10 km
2018/08/16 17:20 EGLL 161720Z AUTO 26012KT 230V300 9999 NCD 21/09 Q1014 NOSIG
EGKK - London/Gatwick A, United Kingdom
Distance from station: SSW 44km
Updated: 16/08/2018 17:50
Few Clouds
Few Clouds
 Wind from SW
Wind: SW 9 mph , 15 km/h
Temperature: 17°C
Dew Point: 15°C
Humidity: 88%
Barometer: 1015 hPa
Clouds: Few Clouds
Visibility: 6 miles , 10 km
Cloud details: Few Clouds 823 m
2018/08/16 17:50 EGKK 161750Z 23008KT 9999 FEW027 17/15 Q1015
 
EGSS - Stansted Airport, United Kingdom
Distance from station: N 46km
Updated: 16/08/2018 17:50
Clear
Clear
 Wind from SW
Wind: SW 12 mph , 19 km/h
Temperature: 18°C
Dew Point: 13°C
Humidity: 73%
Barometer: 1014 hPa
Clouds: Clear
Visibility: 6 miles , 10 km
2018/08/16 17:50 EGSS 161750Z AUTO 22010KT 9999 NCD 18/13 Q1014
KDTW - Detroit/Wayne, Michigan, USA
Distance from station: NW 38km
Updated: 16/08/2018 17:34
Light rain, Mist, Overcast
Light rain, Mist, Overcast
 Wind from S
Wind: S 10 mph , 17 km/h
Temperature: 23°C
Dew Point: 21°C
Humidity: 89%
Barometer: 1015.9 hPa
Summary: Light rain, Mist
Clouds: Overcast
Visibility: 2 1/2 miles , 4 km
Cloud details: Mostly cloudy 244 m
Mostly cloudy 457 m
Overcast 762 m
2018/08/16 17:34 KDTW 161734Z 19009KT 2 1/2SM -RA BR BKN008 BKN015 OVC025 23/21 A3000 RMK AO2 TWR VIS 4 P0002 T02280206